This is the latest recevied weather packets stored in our database for station/object E22ZMG-3. If no packets are shown the sender has not sent any weather packets the latest 1 day(s).
| Time | Temp. | Humidity | Pressure | Rain* | Wind** | Luminosity | Snow |
|---|---|---|---|---|---|---|---|
| 1778103255 | 31.67° C | 57% | 975 hPa | - | - | 0 W/m² | - |
| 1778102630 | 31.11° C | 58% | 975 hPa | - | - | 0 W/m² | - |
| 1778101381 | 31.11° C | 59% | 975 hPa | - | - | 0 W/m² | - |
| 1778100756 | 31.67° C | 57% | 975 hPa | - | - | 0 W/m² | - |
| 1778100132 | 31.11° C | 60% | 975 hPa | - | - | 0 W/m² | - |
| 1778098883 | 31.67° C | 57% | 974 hPa | - | - | 0 W/m² | - |
| 1778097633 | 31.67° C | 57% | 974 hPa | - | - | 0 W/m² | - |
| 1778096384 | 32.78° C | 54% | 974 hPa | - | - | 0 W/m² | - |
| 1778095335 | 32.78° C | 54% | 974 hPa | - | - | 0 W/m² | - |
| 1778092838 | 32.78° C | 53% | 974 hPa | - | - | 0 W/m² | - |
| 1778091589 | 32.78° C | 53% | 974 hPa | - | - | 0 W/m² | - |
| 1778090965 | 33.33° C | 52% | 975 hPa | - | - | 0 W/m² | - |
| 1778090345 | 32.78° C | 53% | 975 hPa | - | - | 0 W/m² | - |
| 1778089091 | 34.44° C | 49% | 975 hPa | - | - | 0 W/m² | - |
| 1778087842 | 33.89° C | 50% | 975 hPa | - | - | 0 W/m² | - |
| 1778084720 | 34.44° C | 48% | 975 hPa | - | - | 0 W/m² | - |
| 1778084095 | 35° C | 45% | 975 hPa | - | - | 0 W/m² | - |
| 1778079097 | 35° C | 46% | 975 hPa | - | - | 0 W/m² | - |
| 1778076598 | 35° C | 45% | 974 hPa | - | - | 0 W/m² | - |
| 1778074724 | 35.56° C | 44% | 973 hPa | - | - | 0 W/m² | - |
| 1778070978 | 37.22° C | 40% | 972 hPa | - | - | 0 W/m² | - |
| 1778068480 | 36.67° C | 39% | 972 hPa | - | - | 0 W/m² | - |
| 1778067855 | 37.22° C | 38% | 972 hPa | - | - | 0 W/m² | - |
| 1778066606 | 39.44° C | 37% | 971 hPa | - | - | 0 W/m² | - |
| 1778064107 | 41.67° C | 30% | 971 hPa | - | - | 0 W/m² | - |
* Rain since midnight (hover to see other rain measurements)
** Current wind speed in m/s (hover to see current wind gust speed)